Flight Track Log - Related Links

Times and Time Zones

All times are in EDT time to prevent confusion due to time zone crossing. See the EJA929 flight status page for this flight to view local times or setup timezone preferences in your user account.

Time Position Orientation Groundspeed Altitude Reporting Facility
EDT Latitude Longitude Course Direction KTS MPH feet Rate Location/Type
Sat 12:43:00 AM 25.7983 -80.2675 82° East 169 194 800  Level Miami Center
Sat 12:44:14 AM 25.8083 -80.1894 82° East 208 239 4,300 2,591 Climbing Miami Center
Sat 12:45:12 AM 25.8308 -80.1278 68° East 214 246 6,500 1,322 Climbing Miami Center
Sat 12:46:12 AM 25.8781 -80.0667 49° Northeast 243 280 6,900 200 Climbing Miami Center
Sat 12:47:12 AM 25.9525 -80.0986 339° North 211 243 6,900 50 Level Miami Center
Sat 12:48:12 AM 25.9842 -80.1781 294° West 203 234 7,000 1,650 Climbing Miami Center
Sat 12:49:12 AM 25.9947 -80.2639 278° West 245 282 10,200 2,579 Climbing Miami Center
Sat 12:50:13 AM 26.0219 -80.3456 290° West 262 302 12,200 1,537 Climbing Miami Center
Sat 12:51:13 AM 26.1069 -80.3806 340° North 276 318 13,300 1,140 Climbing Miami Center
Sat 12:52:14 AM 26.2042 -80.4181 341° North 316 364 14,500 1,261 Climbing Miami Center
Sat 12:53:12 AM 26.2992 -80.4650 336° Northwest 360 414 15,800 1,322 Climbing Miami Center
Sat 12:54:12 AM 26.4003 -80.5119 337° Northwest 380 437 17,100 1,140 Climbing Miami Center
Sat 12:55:13 AM 26.5033 -80.5617 337° Northwest 394 453 18,100 1,160 Climbing Miami Center
Sat 12:56:11 AM 26.6067 -80.6089 338° Northwest 399 459 19,400 1,210 Climbing Miami Center
Sat 12:57:12 AM 26.7117 -80.6589 337° Northwest 399 459 20,500 1,100 Climbing Miami Center
Sat 12:58:11 AM 26.8258 -80.6953 344° North 410 472 21,600 1,050 Climbing Miami Center
Sat 12:59:12 AM 26.9397 -80.7314 344° North 415 478 22,600 1,091 Climbing Miami Center
Sat 01:00:12 AM 27.0556 -80.7681 344° North 420 483 23,800 1,100 Climbing Miami Center
Sat 01:01:12 AM 27.1694 -80.8044 344° North 420 483 24,800 934 Climbing Miami Center
Sat 01:02:14 AM 27.2875 -80.8414 344° North 420 483 25,700 900 Climbing Miami Center
Sat 01:03:12 AM 27.4094 -80.8806 344° North 434 499 26,600 923 Climbing Miami Center
Sat 01:04:11 AM 27.5294 -80.9200 344° North 441 507 27,500 908 Climbing Miami Center
Sat 01:05:11 AM 27.6536 -80.9594 344° North 452 520 28,400 850 Climbing Miami Center
Sat 01:06:11 AM 27.7778 -80.9967 345° North 452 520 29,200 800 Climbing Miami Center
Sat 01:07:11 AM 27.9039 -81.0389 344° North 452 520 30,000 1,000 Climbing Miami Center
Sat 01:08:11 AM 28.0300 -81.0811 344° North 457 526 31,200 1,250 Climbing Miami Center
Sat 01:09:11 AM 28.1414 -81.1183 344° North 457 526 32,500 1,300 Climbing Miami Center
Sat 01:10:11 AM 28.2656 -81.1608 343° North 457 526 33,800 1,289 Climbing Miami Center
Sat 01:11:12 AM 28.4039 -81.2061 344° North 452 520 35,100 1,282 Climbing Miami Center
Sat 01:11:54 AM 28.4919 -81.2344 344° North 460 529 36,000 1,294 Climbing Jacksonville Center
Sat 01:12:54 AM 28.6178 -81.2772 343° North 452 520 37,300 1,300 Climbing Jacksonville Center
Sat 01:13:54 AM 28.7433 -81.3181 344° North 459 528 38,600 1,300 Climbing Jacksonville Center
Sat 01:14:54 AM 28.8711 -81.3608 344° North 466 536 39,900 1,200 Climbing Jacksonville Center
Sat 01:15:54 AM 28.9992 -81.4064 343° North 471 542 41,000 550 Climbing Jacksonville Center
Sat 01:16:54 AM 29.1311 -81.4450 346° North 476 548 41,000  Level Jacksonville Center
Sat 01:17:54 AM 29.2608 -81.4931 342° North 482 555 41,000  Level Jacksonville Center
Sat 01:18:54 AM 29.3950 -81.5386 344° North 488 562 41,000  Level Jacksonville Center
Sat 01:19:54 AM 29.5333 -81.5822 345° North 500 575 41,000  Level Jacksonville Center
Sat 01:20:54 AM 29.6714 -81.6306 343° North 505 581 41,000  Level Jacksonville Center
Sat 01:21:54 AM 29.8097 -81.6789 343° North 505 581 41,000  Level Jacksonville Center
Sat 01:22:54 AM 29.9458 -81.7228 344° North 510 587 41,000  Level Jacksonville Center
Sat 01:23:54 AM 30.0758 -81.7644 344° North 517 595 41,000  Level Jacksonville Center
Sat 01:24:54 AM 30.2119 -81.8108 344° North 517 595 41,000  Level Jacksonville Center
Sat 01:25:54 AM 30.3478 -81.8550 344° North 512 589 41,000  Level Jacksonville Center
Sat 01:26:54 AM 30.4881 -81.9042 343° North 512 589 41,000  Level Jacksonville Center
Sat 01:27:54 AM 30.6286 -81.9583 342° North 525 604 41,000  Level Jacksonville Center
Sat 01:28:54 AM 30.7644 -82.0053 343° North 519 597 41,000  Level Jacksonville Center
Sat 01:29:54 AM 30.9006 -82.0525 343° North 514 592 41,000  Level Jacksonville Center
Sat 01:30:54 AM 31.0386 -82.1022 343° North 514 592 41,000  Level Jacksonville Center
Sat 01:31:54 AM 31.1747 -82.1497 343° North 514 592 41,000  Level Jacksonville Center
Sat 01:32:54 AM 31.3106 -82.1972 343° North 509 586 41,000  Level Jacksonville Center
Sat 01:33:54 AM 31.4444 -82.2447 343° North 504 580 41,000  Level Jacksonville Center
Sat 01:34:54 AM 31.5825 -82.2903 344° North 504 580 41,000  Level Jacksonville Center
Sat 01:37:16 AM 31.9133 -82.4069 343° North 511 588 41,000  Level Atlanta Center
Sat 01:38:16 AM 32.0494 -82.4533 344° North 505 581 41,000  Level Atlanta Center
Sat 01:39:16 AM 32.1858 -82.5050 342° North 505 581 41,000  Level Atlanta Center
Sat 01:40:16 AM 32.3158 -82.5469 345° North 499 574 41,000  Level Atlanta Center
Sat 01:41:16 AM 32.4519 -82.6014 341° North 499 574 41,000  Level Atlanta Center
Sat 01:42:16 AM 32.5861 -82.6483 344° North 499 574 41,000  Level Atlanta Center
Sat 01:43:16 AM 32.7097 -82.6933 343° North 511 588 41,000  Level Atlanta Center
Sat 01:44:16 AM 32.8461 -82.7433 343° North 506 582 41,000  Level Atlanta Center
Sat 01:45:16 AM 32.9800 -82.7933 343° North 506 582 41,000 -450 Level Atlanta Center
Sat 01:46:16 AM 33.1142 -82.8433 343° North 501 577 40,100 -1,200 Descending Atlanta Center
Sat 01:47:16 AM 33.2483 -82.8911 343° North 501 577 38,600 -1,450 Descending Atlanta Center
Sat 01:48:16 AM 33.3844 -82.9417 343° North 506 582 37,200 -1,450 Descending Atlanta Center
Sat 01:49:16 AM 33.5225 -82.9922 343° North 506 582 35,700 -1,450 Descending Atlanta Center
Sat 01:50:16 AM 33.6628 -83.0406 344° North 511 588 34,300 -850 Descending Atlanta Center
Sat 01:51:16 AM 33.8011 -83.0914 343° North 516 594 34,000 -150 Descending Atlanta Center
Sat 01:52:16 AM 33.9433 -83.1472 342° North 522 601 34,000  Level Atlanta Center
Sat 01:53:16 AM 34.0794 -83.1961 343° North 516 594 34,000  Level Atlanta Center
Sat 01:54:16 AM 34.2194 -83.2475 343° North 524 603 34,000  Level Atlanta Center
Sat 01:55:16 AM 34.3597 -83.2989 343° North 518 596 34,000 -450 Level Atlanta Center
Sat 01:56:16 AM 34.4978 -83.3508 343° North 518 596 33,100 -2,000 Descending Atlanta Center
Sat 01:57:16 AM 34.6442 -83.4075 342° North 538 619 30,000 -2,900 Descending Atlanta Center
Sat 01:58:16 AM 34.7989 -83.4697 342° North 538 619 27,300 -2,750 Descending Atlanta Center
Sat 01:59:16 AM 34.9200 -83.5169 342° North 529 609 24,500 -2,900 Descending Atlanta Center
Sat 02:00:16 AM 35.0414 -83.5694 341° North 495 570 21,500 -3,050 Descending Atlanta Center
Sat 02:01:16 AM 35.1564 -83.6297 337° Northwest 461 531 18,400 -2,900 Descending Atlanta Center
Sat 02:02:16 AM 35.2608 -83.6878 336° Northwest 434 499 15,700 -2,650 Descending Atlanta Center
Sat 02:03:16 AM 35.3675 -83.7483 335° Northwest 421 484 13,100 -2,800 Descending Atlanta Center
Sat 02:04:16 AM 35.4656 -83.8017 336° Northwest 405 466 10,100 -2,300 Descending Atlanta Center
Sat 02:05:16 AM 35.5219 -83.8703 315° West 335 386 8,500 -1,550 Descending Atlanta Center
Sat 02:06:16 AM 35.5681 -83.9494 306° West 301 346 7,000 -1,350 Descending Atlanta Center
Sat 02:07:16 AM 35.6139 -84.0261 306° West 290 334 5,800 -1,400 Descending Atlanta Center
Sat 02:08:16 AM 35.6683 -84.0872 318° Northwest 281 323 4,200 -1,350 Descending Atlanta Center
Sat 02:09:16 AM 35.7225 -84.0872 360° North 231 266 3,100 -1,050 Descending Atlanta Center
Sat 02:10:16 AM 35.7578 -84.0567 35° Northeast 157 181 2,100 -1,000 Descending Atlanta Center
Sat 02:12:00 AM 35.8000 -83.9833 338° Northwest  Level FlightAware Approximate

Login

Don't have an account? Register now (free) for customized features, flight alerts, and more!